Terminal Aerodrome Forecast
Issued by NWS Duluth, MN

Home | Current Version | Previous Version | Text Only | Print | Product List | Glossary On
Versions: 1 2 3 4 5 6 7 8 9 10 11 12 13 14 15 16 17 18 19 20 21 22 23 24 25 26 27 28 29 30 31 32 33 34 35 36 37
605
FTUS43 KDLH 260639 AAA
TAFDLH
TAF AMD
KDLH 260639Z 2607/2706 10011G17KT 1 1/2SM -FZDZ BR OVC002
     FM260900 05010KT 2SM BR VCSH OVC003
      TEMPO 2611/2615 1SM -FZRA BR
     FM261800 04008KT 4SM BR VCSH OVC007
     FM262100 03006KT 6SM BR OVC010=

USA.gov is the U.S. government's official web portal to all federal, state and local government web resources and services.